La Grange, California
Current Conditions -  °F | °C
As of 4:55 AM on Sunday 25 Jan 2015 (Local Time) from KMER Reporting Station
Overcast Overcast  
Wind Chill: 43°   Ceiling: 100
Heat Index: 43°   Visibility: 0.75mi
Dew Point: 43°   Wind: 3mph
Humidity: 100%   Direction: 210°SSW
Pressure: 30.19"   Gusts: NA
Location:  37.66°N, 120.46°W
Report Text: KMER 251255Z AUTO 21003KT 3/4SM OVC001 06/06 A3019 RMK AO1
Loading
Personal Weather Stations






























Interactive Weather Map New forecast layout! Learn more

10-Day Weather Forecast

Advertisements
Track Severe Weather on mobile